sensor_id;sensor_type;location;lat;lon;timestamp;temperature;humidity
72126;SHT31;59999;51.676;22.650;2023-06-01T00:02:10;8.34;76.31
72126;SHT31;59999;51.676;22.650;2023-06-01T00:04:38;8.31;76.40
72126;SHT31;59999;51.676;22.650;2023-06-01T00:07:07;8.34;76.15
72126;SHT31;59999;51.676;22.650;2023-06-01T00:09:33;8.31;75.86
72126;SHT31;59999;51.676;22.650;2023-06-01T00:11:59;8.33;75.66
72126;SHT31;59999;51.676;22.650;2023-06-01T00:14:26;8.31;75.29
72126;SHT31;59999;51.676;22.650;2023-06-01T00:16:52;8.30;75.24
72126;SHT31;59999;51.676;22.650;2023-06-01T00:19:18;8.30;75.28
72126;SHT31;59999;51.676;22.650;2023-06-01T00:21:44;8.28;75.27
72126;SHT31;59999;51.676;22.650;2023-06-01T00:24:10;8.27;75.42
72126;SHT31;59999;51.676;22.650;2023-06-01T00:26:36;8.21;75.35
72126;SHT31;59999;51.676;22.650;2023-06-01T00:29:02;8.15;75.70
72126;SHT31;59999;51.676;22.650;2023-06-01T00:31:28;8.08;75.92
72126;SHT31;59999;51.676;22.650;2023-06-01T00:33:53;8.01;76.10
72126;SHT31;59999;51.676;22.650;2023-06-01T00:36:20;8.00;76.13
72126;SHT31;59999;51.676;22.650;2023-06-01T00:38:46;7.94;76.20
72126;SHT31;59999;51.676;22.650;2023-06-01T00:41:12;7.93;76.19
72126;SHT31;59999;51.676;22.650;2023-06-01T00:43:38;7.91;76.36
72126;SHT31;59999;51.676;22.650;2023-06-01T00:46:05;7.89;76.40
72126;SHT31;59999;51.676;22.650;2023-06-01T00:48:31;7.90;76.36
72126;SHT31;59999;51.676;22.650;2023-06-01T00:50:57;7.87;76.10
72126;SHT31;59999;51.676;22.650;2023-06-01T00:53:24;7.84;75.87
72126;SHT31;59999;51.676;22.650;2023-06-01T00:55:51;7.84;75.91
72126;SHT31;59999;51.676;22.650;2023-06-01T00:58:17;7.82;75.90
72126;SHT31;59999;51.676;22.650;2023-06-01T01:00:43;7.83;75.75
72126;SHT31;59999;51.676;22.650;2023-06-01T01:03:09;7.80;75.53
72126;SHT31;59999;51.676;22.650;2023-06-01T01:05:37;7.79;75.40
72126;SHT31;59999;51.676;22.650;2023-06-01T01:08:13;7.80;74.90
72126;SHT31;59999;51.676;22.650;2023-06-01T01:10:52;7.77;74.63
72126;SHT31;59999;51.676;22.650;2023-06-01T01:13:34;7.80;74.56
72126;SHT31;59999;51.676;22.650;2023-06-01T01:16:08;7.80;74.63
72126;SHT31;59999;51.676;22.650;2023-06-01T01:18:40;7.76;74.75
72126;SHT31;59999;51.676;22.650;2023-06-01T01:21:09;7.70;74.88
72126;SHT31;59999;51.676;22.650;2023-06-01T01:23:58;7.69;75.08
72126;SHT31;59999;51.676;22.650;2023-06-01T01:26:47;7.63;75.25
72126;SHT31;59999;51.676;22.650;2023-06-01T01:29:20;7.56;75.26
72126;SHT31;59999;51.676;22.650;2023-06-01T01:31:49;7.54;75.30
72126;SHT31;59999;51.676;22.650;2023-06-01T01:34:17;7.49;75.19
72126;SHT31;59999;51.676;22.650;2023-06-01T01:36:43;7.46;75.24
72126;SHT31;59999;51.676;22.650;2023-06-01T01:39:09;7.45;75.34
72126;SHT31;59999;51.676;22.650;2023-06-01T01:41:35;7.42;75.42
72126;SHT31;59999;51.676;22.650;2023-06-01T01:44:03;7.38;75.22
72126;SHT31;59999;51.676;22.650;2023-06-01T01:46:32;7.36;75.19
72126;SHT31;59999;51.676;22.650;2023-06-01T01:54:13;7.27;75.32
72126;SHT31;59999;51.676;22.650;2023-06-01T01:56:40;7.27;75.21
72126;SHT31;59999;51.676;22.650;2023-06-01T01:59:06;7.31;75.06
72126;SHT31;59999;51.676;22.650;2023-06-01T02:01:33;7.32;75.02
72126;SHT31;59999;51.676;22.650;2023-06-01T02:04:03;7.34;75.15
72126;SHT31;59999;51.676;22.650;2023-06-01T02:06:30;7.38;75.08
72126;SHT31;59999;51.676;22.650;2023-06-01T02:08:56;7.38;75.03
72126;SHT31;59999;51.676;22.650;2023-06-01T02:11:22;7.39;74.99
72126;SHT31;59999;51.676;22.650;2023-06-01T02:13:48;7.39;75.14
72126;SHT31;59999;51.676;22.650;2023-06-01T02:16:14;7.36;75.06
72126;SHT31;59999;51.676;22.650;2023-06-01T02:18:44;7.28;75.12
72126;SHT31;59999;51.676;22.650;2023-06-01T02:21:13;7.28;74.85
72126;SHT31;59999;51.676;22.650;2023-06-01T02:23:39;7.32;74.50
72126;SHT31;59999;51.676;22.650;2023-06-01T02:26:06;7.31;74.28
72126;SHT31;59999;51.676;22.650;2023-06-01T02:28:32;7.35;74.12
72126;SHT31;59999;51.676;22.650;2023-06-01T02:30:58;7.36;73.88
72126;SHT31;59999;51.676;22.650;2023-06-01T02:33:24;7.39;73.73
72126;SHT31;59999;51.676;22.650;2023-06-01T02:35:51;7.46;73.65
72126;SHT31;59999;51.676;22.650;2023-06-01T02:38:17;7.52;73.48
72126;SHT31;59999;51.676;22.650;2023-06-01T02:40:43;7.55;73.81
72126;SHT31;59999;51.676;22.650;2023-06-01T02:43:09;7.58;73.99
72126;SHT31;59999;51.676;22.650;2023-06-01T02:45:35;7.58;74.17
72126;SHT31;59999;51.676;22.650;2023-06-01T02:48:01;7.59;74.32
72126;SHT31;59999;51.676;22.650;2023-06-01T02:50:28;7.62;74.46
72126;SHT31;59999;51.676;22.650;2023-06-01T02:52:53;7.66;74.53
72126;SHT31;59999;51.676;22.650;2023-06-01T02:55:19;7.66;74.57
72126;SHT31;59999;51.676;22.650;2023-06-01T02:57:45;7.73;74.66
72126;SHT31;59999;51.676;22.650;2023-06-01T03:00:12;7.76;74.69
72126;SHT31;59999;51.676;22.650;2023-06-01T03:02:47;7.80;74.56
72126;SHT31;59999;51.676;22.650;2023-06-01T03:05:14;7.86;74.46
72126;SHT31;59999;51.676;22.650;2023-06-01T03:07:41;7.90;74.35
72126;SHT31;59999;51.676;22.650;2023-06-01T03:10:07;7.94;74.15
72126;SHT31;59999;51.676;22.650;2023-06-01T03:12:34;8.01;73.90
72126;SHT31;59999;51.676;22.650;2023-06-01T03:15:00;8.05;73.71
72126;SHT31;59999;51.676;22.650;2023-06-01T03:17:26;8.11;73.63
72126;SHT31;59999;51.676;22.650;2023-06-01T03:19:52;8.18;73.73
72126;SHT31;59999;51.676;22.650;2023-06-01T03:22:18;8.24;73.55
72126;SHT31;59999;51.676;22.650;2023-06-01T03:24:44;8.34;73.22
72126;SHT31;59999;51.676;22.650;2023-06-01T03:27:13;8.38;72.99
72126;SHT31;59999;51.676;22.650;2023-06-01T03:29:39;8.41;72.91
72126;SHT31;59999;51.676;22.650;2023-06-01T03:32:05;8.46;72.85
72126;SHT31;59999;51.676;22.650;2023-06-01T03:34:31;8.54;72.83
72126;SHT31;59999;51.676;22.650;2023-06-01T03:36:58;8.62;72.85
72126;SHT31;59999;51.676;22.650;2023-06-01T03:39:24;8.71;72.62
72126;SHT31;59999;51.676;22.650;2023-06-01T03:41:50;8.83;72.41
72126;SHT31;59999;51.676;22.650;2023-06-01T03:44:16;8.89;72.25
72126;SHT31;59999;51.676;22.650;2023-06-01T03:46:42;9.00;72.16
72126;SHT31;59999;51.676;22.650;2023-06-01T03:49:08;9.10;72.35
72126;SHT31;59999;51.676;22.650;2023-06-01T03:51:34;9.20;72.32
72126;SHT31;59999;51.676;22.650;2023-06-01T03:54:01;9.35;72.35
72126;SHT31;59999;51.676;22.650;2023-06-01T03:56:27;9.50;72.52
72126;SHT31;59999;51.676;22.650;2023-06-01T03:58:53;9.62;72.72
72126;SHT31;59999;51.676;22.650;2023-06-01T04:01:19;9.75;72.75
72126;SHT31;59999;51.676;22.650;2023-06-01T04:03:46;9.88;72.88
72126;SHT31;59999;51.676;22.650;2023-06-01T04:06:14;10.06;72.94
72126;SHT31;59999;51.676;22.650;2023-06-01T04:08:44;10.20;73.13
72126;SHT31;59999;51.676;22.650;2023-06-01T04:11:15;10.40;73.18
72126;SHT31;59999;51.676;22.650;2023-06-01T04:13:42;10.60;72.95
72126;SHT31;59999;51.676;22.650;2023-06-01T04:16:10;10.81;71.92
72126;SHT31;59999;51.676;22.650;2023-06-01T04:18:36;11.02;69.59
72126;SHT31;59999;51.676;22.650;2023-06-01T04:21:02;11.29;68.73
72126;SHT31;59999;51.676;22.650;2023-06-01T04:23:29;11.53;67.89
72126;SHT31;59999;51.676;22.650;2023-06-01T04:25:55;11.77;67.50
72126;SHT31;59999;51.676;22.650;2023-06-01T04:28:28;11.99;65.14
72126;SHT31;59999;51.676;22.650;2023-06-01T04:30:55;12.21;65.76
72126;SHT31;59999;51.676;22.650;2023-06-01T04:33:21;12.39;65.67
72126;SHT31;59999;51.676;22.650;2023-06-01T04:35:48;12.56;65.38
72126;SHT31;59999;51.676;22.650;2023-06-01T04:38:15;12.79;65.15
72126;SHT31;59999;51.676;22.650;2023-06-01T04:40:43;12.97;63.51
72126;SHT31;59999;51.676;22.650;2023-06-01T04:43:11;13.17;62.49
72126;SHT31;59999;51.676;22.650;2023-06-01T04:45:38;13.37;61.64
72126;SHT31;59999;51.676;22.650;2023-06-01T04:48:06;13.49;59.99
72126;SHT31;59999;51.676;22.650;2023-06-01T04:50:35;13.65;60.06
72126;SHT31;59999;51.676;22.650;2023-06-01T04:53:03;13.76;60.16
72126;SHT31;59999;51.676;22.650;2023-06-01T04:55:29;13.91;60.17
72126;SHT31;59999;51.676;22.650;2023-06-01T04:57:57;14.06;59.33
72126;SHT31;59999;51.676;22.650;2023-06-01T05:00:23;14.21;59.42
72126;SHT31;59999;51.676;22.650;2023-06-01T05:02:49;14.34;59.00
72126;SHT31;59999;51.676;22.650;2023-06-01T05:05:16;14.45;57.09
72126;SHT31;59999;51.676;22.650;2023-06-01T05:07:42;14.63;56.51
72126;SHT31;59999;51.676;22.650;2023-06-01T05:10:10;14.78;56.87
72126;SHT31;59999;51.676;22.650;2023-06-01T05:12:36;14.88;56.21
72126;SHT31;59999;51.676;22.650;2023-06-01T05:15:04;15.06;56.00
72126;SHT31;59999;51.676;22.650;2023-06-01T05:17:31;15.19;55.44
72126;SHT31;59999;51.676;22.650;2023-06-01T05:19:57;15.34;55.79
72126;SHT31;59999;51.676;22.650;2023-06-01T05:22:24;15.50;54.78
72126;SHT31;59999;51.676;22.650;2023-06-01T05:24:50;15.64;53.57
72126;SHT31;59999;51.676;22.650;2023-06-01T05:27:16;15.74;53.47
72126;SHT31;59999;51.676;22.650;2023-06-01T05:29:42;15.85;52.94
72126;SHT31;59999;51.676;22.650;2023-06-01T05:32:09;15.94;53.25
72126;SHT31;59999;51.676;22.650;2023-06-01T05:34:35;16.04;53.44
72126;SHT31;59999;51.676;22.650;2023-06-01T05:37:02;16.19;53.64
72126;SHT31;59999;51.676;22.650;2023-06-01T05:39:28;16.28;51.84
72126;SHT31;59999;51.676;22.650;2023-06-01T05:41:55;16.40;51.99
72126;SHT31;59999;51.676;22.650;2023-06-01T05:44:21;16.49;52.58
72126;SHT31;59999;51.676;22.650;2023-06-01T05:46:47;16.55;52.11
72126;SHT31;59999;51.676;22.650;2023-06-01T05:49:14;16.61;51.93
72126;SHT31;59999;51.676;22.650;2023-06-01T05:51:41;16.74;52.10
72126;SHT31;59999;51.676;22.650;2023-06-01T05:54:09;16.85;52.40
72126;SHT31;59999;51.676;22.650;2023-06-01T05:56:36;16.94;51.55
72126;SHT31;59999;51.676;22.650;2023-06-01T05:59:06;17.07;51.20
72126;SHT31;59999;51.676;22.650;2023-06-01T06:01:32;17.14;49.47
72126;SHT31;59999;51.676;22.650;2023-06-01T06:03:58;17.28;50.70
72126;SHT31;59999;51.676;22.650;2023-06-01T06:06:25;17.45;51.54
72126;SHT31;59999;51.676;22.650;2023-06-01T06:08:52;17.63;51.06
72126;SHT31;59999;51.676;22.650;2023-06-01T06:11:18;17.74;48.84
72126;SHT31;59999;51.676;22.650;2023-06-01T06:13:44;17.86;48.78
72126;SHT31;59999;51.676;22.650;2023-06-01T06:16:10;17.89;48.54
72126;SHT31;59999;51.676;22.650;2023-06-01T06:18:36;18.03;49.00
72126;SHT31;59999;51.676;22.650;2023-06-01T06:21:02;18.11;47.68
72126;SHT31;59999;51.676;22.650;2023-06-01T06:23:28;18.20;47.83
72126;SHT31;59999;51.676;22.650;2023-06-01T06:25:56;18.28;46.89
72126;SHT31;59999;51.676;22.650;2023-06-01T06:28:21;18.30;47.60
72126;SHT31;59999;51.676;22.650;2023-06-01T06:30:49;18.37;47.39
72126;SHT31;59999;51.676;22.650;2023-06-01T06:33:15;18.44;47.51
72126;SHT31;59999;51.676;22.650;2023-06-01T06:35:42;18.52;47.40
72126;SHT31;59999;51.676;22.650;2023-06-01T06:38:08;18.62;48.55
72126;SHT31;59999;51.676;22.650;2023-06-01T06:40:34;18.68;48.38
72126;SHT31;59999;51.676;22.650;2023-06-01T06:42:59;18.77;47.69
72126;SHT31;59999;51.676;22.650;2023-06-01T06:45:26;18.85;48.09
72126;SHT31;59999;51.676;22.650;2023-06-01T06:47:51;18.89;47.50
72126;SHT31;59999;51.676;22.650;2023-06-01T06:50:17;19.07;48.50
72126;SHT31;59999;51.676;22.650;2023-06-01T06:52:43;19.24;48.49
72126;SHT31;59999;51.676;22.650;2023-06-01T06:55:09;19.37;48.97
72126;SHT31;59999;51.676;22.650;2023-06-01T06:57:36;19.43;47.15
72126;SHT31;59999;51.676;22.650;2023-06-01T07:00:02;19.53;48.11
72126;SHT31;59999;51.676;22.650;2023-06-01T07:02:31;19.57;47.80
72126;SHT31;59999;51.676;22.650;2023-06-01T07:04:57;19.57;47.21
72126;SHT31;59999;51.676;22.650;2023-06-01T07:07:23;19.58;46.74
72126;SHT31;59999;51.676;22.650;2023-06-01T07:09:49;19.74;48.23
72126;SHT31;59999;51.676;22.650;2023-06-01T07:12:15;19.82;45.62
72126;SHT31;59999;51.676;22.650;2023-06-01T07:14:41;19.77;45.57
72126;SHT31;59999;51.676;22.650;2023-06-01T07:17:07;19.81;46.39
72126;SHT31;59999;51.676;22.650;2023-06-01T07:19:33;19.85;47.13
72126;SHT31;59999;51.676;22.650;2023-06-01T07:21:59;19.95;47.66
72126;SHT31;59999;51.676;22.650;2023-06-01T07:24:26;20.05;47.00
72126;SHT31;59999;51.676;22.650;2023-06-01T07:26:53;20.09;46.96
72126;SHT31;59999;51.676;22.650;2023-06-01T07:29:20;20.19;45.73
72126;SHT31;59999;51.676;22.650;2023-06-01T07:31:46;20.36;46.73
72126;SHT31;59999;51.676;22.650;2023-06-01T07:34:13;20.43;44.66
72126;SHT31;59999;51.676;22.650;2023-06-01T07:36:39;20.56;44.79
72126;SHT31;59999;51.676;22.650;2023-06-01T07:39:06;20.73;44.68
72126;SHT31;59999;51.676;22.650;2023-06-01T07:41:34;20.83;45.00
72126;SHT31;59999;51.676;22.650;2023-06-01T07:44:00;20.87;44.25
72126;SHT31;59999;51.676;22.650;2023-06-01T07:57:27;21.25;44.76
72126;SHT31;59999;51.676;22.650;2023-06-01T07:59:54;21.38;42.60
72126;SHT31;59999;51.676;22.650;2023-06-01T08:02:20;21.52;43.80
72126;SHT31;59999;51.676;22.650;2023-06-01T08:04:46;21.54;44.41
72126;SHT31;59999;51.676;22.650;2023-06-01T08:07:13;21.64;44.95
72126;SHT31;59999;51.676;22.650;2023-06-01T08:09:42;21.80;43.56
72126;SHT31;59999;51.676;22.650;2023-06-01T08:12:09;21.87;40.33
72126;SHT31;59999;51.676;22.650;2023-06-01T08:14:37;21.97;44.02
72126;SHT31;59999;51.676;22.650;2023-06-01T08:17:03;22.02;41.89
72126;SHT31;59999;51.676;22.650;2023-06-01T08:19:29;22.05;40.93
72126;SHT31;59999;51.676;22.650;2023-06-01T08:21:55;22.07;39.62
72126;SHT31;59999;51.676;22.650;2023-06-01T08:24:21;22.01;40.08
72126;SHT31;59999;51.676;22.650;2023-06-01T08:26:54;22.04;40.76
72126;SHT31;59999;51.676;22.650;2023-06-01T08:29:22;22.10;42.82
72126;SHT31;59999;51.676;22.650;2023-06-01T08:31:47;22.20;38.55
72126;SHT31;59999;51.676;22.650;2023-06-01T08:34:13;22.32;40.18
72126;SHT31;59999;51.676;22.650;2023-06-01T08:36:39;22.38;40.00
72126;SHT31;59999;51.676;22.650;2023-06-01T08:39:22;22.53;41.83
72126;SHT31;59999;51.676;22.650;2023-06-01T08:41:57;22.66;37.86
72126;SHT31;59999;51.676;22.650;2023-06-01T08:44:26;22.68;39.93
72126;SHT31;59999;51.676;22.650;2023-06-01T08:46:54;22.77;40.35
72126;SHT31;59999;51.676;22.650;2023-06-01T08:49:21;22.85;41.34
72126;SHT31;59999;51.676;22.650;2023-06-01T08:51:51;22.89;39.80
72126;SHT31;59999;51.676;22.650;2023-06-01T08:54:19;22.80;40.31
72126;SHT31;59999;51.676;22.650;2023-06-01T08:56:45;22.89;42.59
72126;SHT31;59999;51.676;22.650;2023-06-01T08:59:12;22.87;40.62
72126;SHT31;59999;51.676;22.650;2023-06-01T09:01:41;22.90;41.16
72126;SHT31;59999;51.676;22.650;2023-06-01T09:04:08;22.95;40.02
72126;SHT31;59999;51.676;22.650;2023-06-01T09:06:35;23.13;41.58
72126;SHT31;59999;51.676;22.650;2023-06-01T09:09:03;23.26;41.30
72126;SHT31;59999;51.676;22.650;2023-06-01T09:11:28;23.34;40.49
72126;SHT31;59999;51.676;22.650;2023-06-01T09:13:56;23.35;39.48
72126;SHT31;59999;51.676;22.650;2023-06-01T09:16:35;23.34;40.16
72126;SHT31;59999;51.676;22.650;2023-06-01T09:19:01;23.16;39.74
72126;SHT31;59999;51.676;22.650;2023-06-01T09:21:27;23.20;40.92
72126;SHT31;59999;51.676;22.650;2023-06-01T09:23:53;23.33;40.73
72126;SHT31;59999;51.676;22.650;2023-06-01T09:26:26;23.44;38.06
72126;SHT31;59999;51.676;22.650;2023-06-01T09:31:37;23.64;35.41
72126;SHT31;59999;51.676;22.650;2023-06-01T09:34:05;23.62;35.24
72126;SHT31;59999;51.676;22.650;2023-06-01T09:36:32;23.55;36.15
72126;SHT31;59999;51.676;22.650;2023-06-01T09:39:05;23.59;36.58
72126;SHT31;59999;51.676;22.650;2023-06-01T09:41:58;23.64;39.04
72126;SHT31;59999;51.676;22.650;2023-06-01T09:44:32;23.74;37.28
72126;SHT31;59999;51.676;22.650;2023-06-01T09:46:58;23.83;37.21
72126;SHT31;59999;51.676;22.650;2023-06-01T09:49:27;23.82;34.57
72126;SHT31;59999;51.676;22.650;2023-06-01T09:54:41;23.90;37.53
72126;SHT31;59999;51.676;22.650;2023-06-01T09:57:09;23.93;34.00
72126;SHT31;59999;51.676;22.650;2023-06-01T09:59:45;23.96;37.39
72126;SHT31;59999;51.676;22.650;2023-06-01T10:02:23;24.09;37.01
72126;SHT31;59999;51.676;22.650;2023-06-01T10:04:51;24.19;36.74
72126;SHT31;59999;51.676;22.650;2023-06-01T10:07:19;24.23;34.90
72126;SHT31;59999;51.676;22.650;2023-06-01T10:09:51;24.14;34.75
72126;SHT31;59999;51.676;22.650;2023-06-01T10:12:19;24.17;35.12
72126;SHT31;59999;51.676;22.650;2023-06-01T10:14:45;24.23;36.79
72126;SHT31;59999;51.676;22.650;2023-06-01T10:17:13;24.22;36.57
72126;SHT31;59999;51.676;22.650;2023-06-01T10:19:41;24.23;34.63
72126;SHT31;59999;51.676;22.650;2023-06-01T10:22:07;24.09;34.86
72126;SHT31;59999;51.676;22.650;2023-06-01T10:24:35;24.03;34.45
72126;SHT31;59999;51.676;22.650;2023-06-01T10:27:35;24.16;36.10
72126;SHT31;59999;51.676;22.650;2023-06-01T10:30:02;24.20;36.77
72126;SHT31;59999;51.676;22.650;2023-06-01T10:32:45;24.23;35.02
72126;SHT31;59999;51.676;22.650;2023-06-01T10:40:33;24.46;35.78
72126;SHT31;59999;51.676;22.650;2023-06-01T10:42:59;24.46;33.99
72126;SHT31;59999;51.676;22.650;2023-06-01T10:45:37;24.60;35.93
72126;SHT31;59999;51.676;22.650;2023-06-01T10:48:06;24.50;34.68
72126;SHT31;59999;51.676;22.650;2023-06-01T10:50:33;24.43;34.35
72126;SHT31;59999;51.676;22.650;2023-06-01T10:53:29;24.50;34.96
72126;SHT31;59999;51.676;22.650;2023-06-01T10:58:43;24.65;35.29
72126;SHT31;59999;51.676;22.650;2023-06-01T11:01:10;24.72;33.32
72126;SHT31;59999;51.676;22.650;2023-06-01T11:03:48;24.75;34.70
72126;SHT31;59999;51.676;22.650;2023-06-01T11:06:29;24.78;33.51
72126;SHT31;59999;51.676;22.650;2023-06-01T11:09:02;24.81;34.26
72126;SHT31;59999;51.676;22.650;2023-06-01T11:14:22;25.05;35.69
72126;SHT31;59999;51.676;22.650;2023-06-01T11:16:52;25.07;31.57
72126;SHT31;59999;51.676;22.650;2023-06-01T11:19:26;25.05;31.12
72126;SHT31;59999;51.676;22.650;2023-06-01T11:22:00;25.08;33.50
72126;SHT31;59999;51.676;22.650;2023-06-01T11:24:33;25.23;32.43
72126;SHT31;59999;51.676;22.650;2023-06-01T11:27:08;25.04;33.76
72126;SHT31;59999;51.676;22.650;2023-06-01T11:29:34;25.04;34.35
72126;SHT31;59999;51.676;22.650;2023-06-01T11:32:02;24.92;29.89
72126;SHT31;59999;51.676;22.650;2023-06-01T11:34:39;25.02;32.42
72126;SHT31;59999;51.676;22.650;2023-06-01T11:37:17;25.02;31.25
72126;SHT31;59999;51.676;22.650;2023-06-01T11:39:43;25.02;31.84
72126;SHT31;59999;51.676;22.650;2023-06-01T11:42:17;25.07;32.28
72126;SHT31;59999;51.676;22.650;2023-06-01T11:44:56;25.16;33.02
72126;SHT31;59999;51.676;22.650;2023-06-01T11:47:27;25.19;33.35
72126;SHT31;59999;51.676;22.650;2023-06-01T11:49:53;25.22;31.24
72126;SHT31;59999;51.676;22.650;2023-06-01T11:52:20;25.29;32.41
72126;SHT31;59999;51.676;22.650;2023-06-01T11:54:47;25.32;31.60
72126;SHT31;59999;51.676;22.650;2023-06-01T11:57:14;25.36;31.36
72126;SHT31;59999;51.676;22.650;2023-06-01T11:59:43;25.40;32.33
72126;SHT31;59999;51.676;22.650;2023-06-01T12:02:26;25.36;31.39
72126;SHT31;59999;51.676;22.650;2023-06-01T12:05:00;25.39;32.30
72126;SHT31;59999;51.676;22.650;2023-06-01T12:07:45;25.51;32.28
72126;SHT31;59999;51.676;22.650;2023-06-01T12:10:12;25.62;30.98
72126;SHT31;59999;51.676;22.650;2023-06-01T12:12:43;25.66;31.18
72126;SHT31;59999;51.676;22.650;2023-06-01T12:15:14;25.70;31.69
72126;SHT31;59999;51.676;22.650;2023-06-01T12:17:52;25.90;32.39
72126;SHT31;59999;51.676;22.650;2023-06-01T12:22:54;25.97;31.86
72126;SHT31;59999;51.676;22.650;2023-06-01T12:25:24;25.94;32.59
72126;SHT31;59999;51.676;22.650;2023-06-01T12:28:05;25.90;31.46
72126;SHT31;59999;51.676;22.650;2023-06-01T12:30:31;26.04;33.39
72126;SHT31;59999;51.676;22.650;2023-06-01T12:32:58;26.02;32.35
72126;SHT31;59999;51.676;22.650;2023-06-01T12:35:24;26.07;31.97
72126;SHT31;59999;51.676;22.650;2023-06-01T12:38:07;26.13;30.83
72126;SHT31;59999;51.676;22.650;2023-06-01T12:40:34;26.01;31.34
72126;SHT31;59999;51.676;22.650;2023-06-01T12:43:01;26.05;31.58
72126;SHT31;59999;51.676;22.650;2023-06-01T12:45:37;26.20;32.18
72126;SHT31;59999;51.676;22.650;2023-06-01T12:48:04;26.24;32.72
72126;SHT31;59999;51.676;22.650;2023-06-01T12:50:30;26.20;30.41
72126;SHT31;59999;51.676;22.650;2023-06-01T12:52:57;26.29;31.35
72126;SHT31;59999;51.676;22.650;2023-06-01T12:55:23;26.39;30.91
72126;SHT31;59999;51.676;22.650;2023-06-01T12:57:53;26.49;30.07
72126;SHT31;59999;51.676;22.650;2023-06-01T13:00:20;26.51;30.34
72126;SHT31;59999;51.676;22.650;2023-06-01T13:02:47;26.52;30.99
72126;SHT31;59999;51.676;22.650;2023-06-01T13:05:16;26.39;30.00
72126;SHT31;59999;51.676;22.650;2023-06-01T13:07:43;26.41;31.86
72126;SHT31;59999;51.676;22.650;2023-06-01T13:10:12;26.39;29.93
72126;SHT31;59999;51.676;22.650;2023-06-01T13:12:39;26.48;31.67
72126;SHT31;59999;51.676;22.650;2023-06-01T13:15:07;26.57;30.30
72126;SHT31;59999;51.676;22.650;2023-06-01T13:17:34;26.66;31.11
72126;SHT31;59999;51.676;22.650;2023-06-01T13:20:01;26.72;30.69
72126;SHT31;59999;51.676;22.650;2023-06-01T13:22:32;26.66;29.69
72126;SHT31;59999;51.676;22.650;2023-06-01T13:24:57;26.63;31.34
72126;SHT31;59999;51.676;22.650;2023-06-01T13:27:24;26.72;32.04
72126;SHT31;59999;51.676;22.650;2023-06-01T13:29:49;26.79;32.33
72126;SHT31;59999;51.676;22.650;2023-06-01T13:32:16;26.78;29.93
72126;SHT31;59999;51.676;22.650;2023-06-01T13:34:42;26.72;30.02
72126;SHT31;59999;51.676;22.650;2023-06-01T13:37:08;26.69;29.19
72126;SHT31;59999;51.676;22.650;2023-06-01T13:39:34;26.66;29.87
72126;SHT31;59999;51.676;22.650;2023-06-01T13:42:00;26.71;29.69
72126;SHT31;59999;51.676;22.650;2023-06-01T13:44:26;26.82;31.89
72126;SHT31;59999;51.676;22.650;2023-06-01T13:46:52;26.87;30.60
72126;SHT31;59999;51.676;22.650;2023-06-01T13:49:18;27.00;28.99
72126;SHT31;59999;51.676;22.650;2023-06-01T13:51:44;27.10;27.94
72126;SHT31;59999;51.676;22.650;2023-06-01T13:54:10;27.21;26.46
72126;SHT31;59999;51.676;22.650;2023-06-01T13:56:38;27.50;27.82
72126;SHT31;59999;51.676;22.650;2023-06-01T13:59:04;27.86;27.46
72126;SHT31;59999;51.676;22.650;2023-06-01T14:01:30;28.17;27.30
72126;SHT31;59999;51.676;22.650;2023-06-01T14:03:56;28.39;25.59
72126;SHT31;59999;51.676;22.650;2023-06-01T14:06:22;28.74;25.87
72126;SHT31;59999;51.676;22.650;2023-06-01T14:08:48;28.75;26.11
72126;SHT31;59999;51.676;22.650;2023-06-01T14:11:14;28.94;25.75
72126;SHT31;59999;51.676;22.650;2023-06-01T14:13:40;29.11;25.80
72126;SHT31;59999;51.676;22.650;2023-06-01T14:16:06;29.20;25.21
72126;SHT31;59999;51.676;22.650;2023-06-01T14:18:32;29.52;25.04
72126;SHT31;59999;51.676;22.650;2023-06-01T14:20:58;29.46;25.79
72126;SHT31;59999;51.676;22.650;2023-06-01T14:23:25;29.32;24.73
72126;SHT31;59999;51.676;22.650;2023-06-01T14:25:51;29.27;24.60
72126;SHT31;59999;51.676;22.650;2023-06-01T14:28:17;29.62;25.18
72126;SHT31;59999;51.676;22.650;2023-06-01T14:30:43;29.85;24.64
72126;SHT31;59999;51.676;22.650;2023-06-01T14:33:09;29.74;23.94
72126;SHT31;59999;51.676;22.650;2023-06-01T14:35:36;30.04;23.61
72126;SHT31;59999;51.676;22.650;2023-06-01T14:38:02;30.32;24.07
72126;SHT31;59999;51.676;22.650;2023-06-01T14:40:28;30.33;24.31
72126;SHT31;59999;51.676;22.650;2023-06-01T14:42:53;30.38;23.32
72126;SHT31;59999;51.676;22.650;2023-06-01T14:45:20;30.02;22.89
72126;SHT31;59999;51.676;22.650;2023-06-01T14:47:47;30.17;24.61
72126;SHT31;59999;51.676;22.650;2023-06-01T14:50:13;30.52;23.95
72126;SHT31;59999;51.676;22.650;2023-06-01T14:52:39;30.62;23.49
72126;SHT31;59999;51.676;22.650;2023-06-01T14:55:05;30.69;22.14
72126;SHT31;59999;51.676;22.650;2023-06-01T14:57:31;30.63;22.84
72126;SHT31;59999;51.676;22.650;2023-06-01T14:59:57;30.60;23.26
72126;SHT31;59999;51.676;22.650;2023-06-01T15:02:23;30.66;23.11
72126;SHT31;59999;51.676;22.650;2023-06-01T15:04:49;30.69;22.82
72126;SHT31;59999;51.676;22.650;2023-06-01T15:07:16;31.17;22.14
72126;SHT31;59999;51.676;22.650;2023-06-01T15:09:42;31.52;22.14
72126;SHT31;59999;51.676;22.650;2023-06-01T15:12:09;31.52;21.46
72126;SHT31;59999;51.676;22.650;2023-06-01T15:14:35;31.37;22.01
72126;SHT31;59999;51.676;22.650;2023-06-01T15:17:01;31.49;22.43
72126;SHT31;59999;51.676;22.650;2023-06-01T15:19:27;31.41;22.64
72126;SHT31;59999;51.676;22.650;2023-06-01T15:21:53;31.30;22.27
72126;SHT31;59999;51.676;22.650;2023-06-01T15:24:19;31.74;22.78
72126;SHT31;59999;51.676;22.650;2023-06-01T15:26:45;31.99;22.96
72126;SHT31;59999;51.676;22.650;2023-06-01T15:29:11;32.29;22.28
72126;SHT31;59999;51.676;22.650;2023-06-01T15:31:37;32.85;23.02
72126;SHT31;59999;51.676;22.650;2023-06-01T15:34:03;33.35;22.68
72126;SHT31;59999;51.676;22.650;2023-06-01T15:36:30;33.55;22.40
72126;SHT31;59999;51.676;22.650;2023-06-01T15:38:57;33.62;20.68
72126;SHT31;59999;51.676;22.650;2023-06-01T15:41:23;33.32;21.46
72126;SHT31;59999;51.676;22.650;2023-06-01T15:43:49;33.52;21.56
72126;SHT31;59999;51.676;22.650;2023-06-01T15:46:15;33.43;21.70
72126;SHT31;59999;51.676;22.650;2023-06-01T15:48:42;33.07;21.68
72126;SHT31;59999;51.676;22.650;2023-06-01T15:51:08;32.56;22.43
72126;SHT31;59999;51.676;22.650;2023-06-01T15:53:34;32.77;22.70
72126;SHT31;59999;51.676;22.650;2023-06-01T15:56:00;33.14;22.76
72126;SHT31;59999;51.676;22.650;2023-06-01T15:58:43;33.21;22.98
72126;SHT31;59999;51.676;22.650;2023-06-01T16:01:10;33.04;22.63